Time;durP1;ratioP1;P1;durP2;ratioP2;P2;SDS_P1;SDS_P2;PMS_P1;PMS_P2;Temp;Humidity;BMP_temperature;BMP_pressure;BME280_temperature;BME280_humidity;BME280_pressure;Samples;Min_cycle;Max_cycle;Signal;HPM_P1;HPM_P2
2022/08/22 00:02:31;;;;;;;;;;;15.90;89.10;;;;;;4898438;29;20028;-63
2022/08/22 00:05:46;;;;;;;1.52;0.90;;;16.10;88.80;;;;;;4897898;29;19963;-65
2022/08/22 00:08:25;;;;;;;0.75;0.75;;;16.20;88.00;;;;;;4897504;29;20151;-64
2022/08/22 00:11:13;;;;;;;2.00;0.57;;;16.20;86.00;;;;;;4897841;29;20557;-63
2022/08/22 00:13:48;;;;;;;2.03;0.70;;;16.30;87.00;;;;;;4897992;29;20392;-63
2022/08/22 00:16:15;;;;;;;2.58;0.70;;;16.40;89.10;;;;;;4897455;29;20084;-65
2022/08/22 00:19:10;;;;;;;1.30;0.65;;;16.60;89.30;;;;;;4897743;29;20028;-67
2022/08/22 00:22:00;;;;;;;1.20;0.90;;;16.60;89.10;;;;;;4896565;29;20044;-66
2022/08/22 00:24:46;;;;;;;3.10;0.80;;;16.70;88.00;;;;;;4897581;29;20032;-66
2022/08/22 00:27:32;;;;;;;2.67;1.15;;;16.80;87.60;;;;;;4897465;29;20107;-65
2022/08/22 00:30:10;;;;;;;1.85;1.02;;;16.80;87.40;;;;;;4897264;29;20033;-66
2022/08/22 00:32:42;;;;;;;2.25;0.80;;;17.00;87.50;;;;;;4897836;29;20545;-66
2022/08/22 00:35:20;;;;;;;1.48;0.90;;;17.10;85.70;;;;;;4897261;29;20036;-67
2022/08/22 00:37:59;;;;;;;1.80;0.80;;;17.10;83.40;;;;;;4897362;29;20421;-67
2022/08/22 00:40:44;;;;;;;0.40;0.40;;;17.20;82.20;;;;;;4897393;29;20021;-65
2022/08/22 00:43:52;;;;;;;0.98;0.68;;;17.30;83.10;;;;;;4896973;29;20164;-69
2022/08/22 00:46:41;;;;;;;2.42;0.75;;;17.40;84.20;;;;;;4897122;29;20035;-65
2022/08/22 00:49:18;;;;;;;3.53;2.30;;;17.50;84.10;;;;;;4897255;29;20512;-67
2022/08/22 00:52:01;;;;;;;2.63;0.82;;;17.60;84.40;;;;;;4897001;29;20055;-65
2022/08/22 00:54:54;;;;;;;2.90;0.65;;;17.70;82.40;;;;;;4897129;29;20024;-65
2022/08/22 00:57:52;;;;;;;1.40;0.70;;;17.80;81.40;;;;;;4896877;29;20051;-65
2022/08/22 01:00:23;;;;;;;1.40;0.60;;;17.80;81.00;;;;;;4897045;29;20029;-64
2022/08/22 01:03:06;;;;;;;0.65;0.43;;;17.90;80.80;;;;;;4896849;29;20482;-64
2022/08/22 01:06:10;;;;;;;0.75;0.50;;;18.10;80.40;;;;;;4896886;29;20028;-67
2022/08/22 01:08:57;;;;;;;0.60;0.60;;;18.10;79.60;;;;;;4896797;29;20389;-68
2022/08/22 01:11:51;;;;;;;0.98;0.80;;;18.20;80.90;;;;;;4896873;29;20127;-64
2022/08/22 01:14:40;;;;;;;1.75;0.63;;;18.40;79.20;;;;;;4896621;29;20393;-67
2022/08/22 01:17:24;;;;;;;2.20;0.73;;;18.60;78.80;;;;;;4896819;29;20036;-65
2022/08/22 01:20:06;;;;;;;1.85;0.60;;;18.70;77.20;;;;;;4897062;29;20024;-65
2022/08/22 01:22:52;;;;;;;1.05;0.90;;;18.70;77.60;;;;;;4896920;29;20028;-64
2022/08/22 01:25:57;;;;;;;1.02;0.60;;;18.80;77.90;;;;;;4896560;29;20482;-65
2022/08/22 01:29:01;;;;;;;2.80;0.85;;;18.90;77.30;;;;;;4895560;29;20048;-65
2022/08/22 01:31:49;;;;;;;1.45;0.70;;;19.00;78.00;;;;;;4896979;29;20029;-66
2022/08/22 01:34:42;;;;;;;2.00;0.68;;;19.20;77.80;;;;;;4896322;29;20108;-64
2022/08/22 01:37:22;;;;;;;3.15;0.70;;;19.20;77.10;;;;;;4896785;29;20039;-65
2022/08/22 01:40:02;;;;;;;2.20;0.88;;;19.40;76.60;;;;;;4896577;29;20021;-64
2022/08/22 01:43:05;;;;;;;1.92;0.60;;;19.50;76.60;;;;;;4896602;29;20477;-66
2022/08/22 01:45:32;;;;;;;;;;;19.60;76.70;;;;;;4897091;29;20039;-66
2022/08/22 01:48:10;;;;;;;2.00;0.70;;;19.70;74.80;;;;;;4896401;29;19929;-67
2022/08/22 01:51:23;;;;;;;1.33;0.80;;;19.70;75.20;;;;;;4896486;29;20029;-66
2022/08/22 01:54:25;;;;;;;1.10;0.50;;;19.70;74.80;;;;;;4877916;29;20036;-67
2022/08/22 01:57:01;;;;;;;1.33;0.60;;;19.90;75.00;;;;;;4896256;29;20421;-65
2022/08/22 01:59:56;;;;;;;0.98;0.57;;;20.10;73.80;;;;;;4896466;29;20509;-66
2022/08/22 02:02:50;;;;;;;1.27;0.70;;;20.30;74.00;;;;;;4896453;29;20029;-65
2022/08/22 02:05:32;;;;;;;1.13;0.63;;;20.50;74.10;;;;;;4896058;29;20036;-66
2022/08/22 02:08:43;;;;;;;2.10;0.80;;;20.80;73.00;;;;;;4896238;29;20107;-66
2022/08/22 02:11:31;;;;;;;0.90;0.60;;;20.90;71.70;;;;;;4895238;29;20033;-66
2022/08/22 02:14:12;;;;;;;1.25;0.90;;;21.00;70.30;;;;;;4896432;29;20033;-66
2022/08/22 02:16:47;;;;;;;1.52;0.60;;;21.10;71.60;;;;;;4896694;29;20040;-65
2022/08/22 02:19:14;;;;;;;1.45;0.45;;;21.20;70.40;;;;;;4896342;29;20029;-66
2022/08/22 02:21:55;;;;;;;1.48;0.50;;;21.30;69.40;;;;;;4895278;29;20504;-71
2022/08/22 02:24:45;;;;;;;0.90;0.40;;;21.30;68.80;;;;;;4896362;29;20025;-68
2022/08/22 02:27:30;;;;;;;2.13;0.65;;;21.40;68.90;;;;;;4931831;29;20039;-65
2022/08/22 02:30:18;;;;;;;4.00;0.70;;;21.50;68.70;;;;;;4931291;29;20036;-67
2022/08/22 02:33:02;;;;;;;1.38;0.52;;;21.70;68.30;;;;;;4931011;29;20020;-66
2022/08/22 02:35:32;;;;;;;1.45;0.63;;;21.90;67.70;;;;;;4930946;29;20032;-67
2022/08/22 02:38:20;;;;;;;4.38;0.70;;;22.10;67.20;;;;;;4931815;29;20098;-65
2022/08/22 02:41:14;;;;;;;2.80;0.60;;;22.20;66.80;;;;;;4931739;29;20023;-65
2022/08/22 02:44:25;;;;;;;1.15;0.60;;;22.40;66.60;;;;;;4931146;29;20036;-68
2022/08/22 02:47:00;;;;;;;1.27;0.50;;;22.60;65.90;;;;;;4877939;29;20077;-68
2022/08/22 02:49:47;;;;;;;6.38;1.38;;;23.00;65.50;;;;;;4878596;29;20124;-71
2022/08/22 02:52:31;;;;;;;0.90;0.50;;;23.40;63.80;;;;;;4917392;29;20374;-65
2022/08/22 02:55:15;;;;;;;0.95;0.40;;;23.60;63.10;;;;;;4935177;29;20031;-68
2022/08/22 02:58:11;;;;;;;1.02;0.50;;;23.70;62.70;;;;;;4924086;29;20143;-66
2022/08/22 03:01:08;;;;;;;0.93;0.40;;;24.00;62.60;;;;;;4898164;29;20051;-68
2022/08/22 03:03:42;;;;;;;2.85;0.43;;;24.30;62.20;;;;;;4898959;29;20072;-66
2022/08/22 03:06:33;;;;;;;1.42;0.55;;;24.70;61.30;;;;;;4898866;29;20389;-65
2022/08/22 03:09:21;;;;;;;1.90;0.52;;;24.90;60.00;;;;;;4897840;29;20028;-64
2022/08/22 03:12:18;;;;;;;0.60;0.40;;;25.30;59.50;;;;;;4899382;29;20031;-66
2022/08/22 03:14:50;;;;;;;1.80;0.50;;;25.40;59.00;;;;;;4899134;29;20032;-65
2022/08/22 03:17:37;;;;;;;3.00;0.50;;;25.60;59.40;;;;;;4899211;29;20040;-66
2022/08/22 03:20:37;;;;;;;1.08;0.30;;;25.80;59.60;;;;;;4913042;29;20116;-65
2022/08/22 03:23:41;;;;;;;1.52;0.50;;;26.60;57.50;;;;;;4898662;29;20065;-66
2022/08/22 03:26:37;;;;;;;0.95;0.50;;;26.60;57.50;;;;;;4897827;29;20037;-66
2022/08/22 03:29:37;;;;;;;0.40;0.40;;;26.70;57.10;;;;;;4897195;29;20033;-65
2022/08/22 03:32:14;;;;;;;2.10;0.40;;;26.60;57.20;;;;;;4898082;29;20462;-67
2022/08/22 03:35:00;;;;;;;3.58;0.60;;;26.80;56.80;;;;;;4898841;29;20581;-67
2022/08/22 03:37:37;;;;;;;2.75;0.50;;;27.00;56.20;;;;;;4898503;29;20052;-67
2022/08/22 03:40:27;;;;;;;2.28;0.40;;;26.90;56.40;;;;;;4898397;29;20407;-69
2022/08/22 03:43:34;;;;;;;0.82;0.30;;;27.10;55.90;;;;;;4898500;29;20486;-65
2022/08/22 03:46:44;;;;;;;1.00;0.50;;;27.40;55.30;;;;;;4898484;29;20028;-65
2022/08/22 03:49:39;;;;;;;1.17;0.40;;;27.50;55.40;;;;;;4898020;29;20127;-67
2022/08/22 03:52:24;;;;;;;1.08;0.40;;;27.40;55.30;;;;;;4898343;29;20032;-66
2022/08/22 03:55:07;;;;;;;1.75;0.43;;;27.30;55.40;;;;;;4898418;29;20032;-65
2022/08/22 03:58:10;;;;;;;1.20;0.45;;;27.40;55.10;;;;;;4897138;29;20144;-67
2022/08/22 04:01:04;;;;;;;3.33;0.60;;;27.50;55.00;;;;;;4898184;29;20074;-70
2022/08/22 04:03:52;;;;;;;2.35;0.50;;;27.20;53.80;;;;;;4897889;29;20485;-65
2022/08/22 04:06:42;;;;;;;3.38;0.52;;;26.90;55.10;;;;;;4898206;29;20107;-66
2022/08/22 04:09:15;;;;;;;4.53;0.77;;;26.40;54.80;;;;;;4897990;29;20099;-70
2022/08/22 04:11:49;;;;;;;1.15;0.30;;;26.40;54.50;;;;;;4898063;29;20034;-70
2022/08/22 04:14:34;;;;;;;3.25;0.45;;;26.60;54.80;;;;;;4897608;29;20093;-67
2022/08/22 04:17:22;;;;;;;0.73;0.30;;;26.70;54.40;;;;;;4897703;29;20036;-66
2022/08/22 04:20:11;;;;;;;1.85;0.40;;;26.60;54.10;;;;;;4898247;29;20024;-67
2022/08/22 04:23:05;;;;;;;3.10;0.40;;;26.60;54.10;;;;;;4898040;29;20032;-66
2022/08/22 04:25:37;;;;;;;0.65;0.30;;;26.40;54.90;;;;;;4897541;29;20040;-67
2022/08/22 04:28:08;;;;;;;3.20;0.30;;;27.00;53.90;;;;;;4897988;29;20025;-68
2022/08/22 04:31:00;;;;;;;1.40;0.30;;;27.20;53.60;;;;;;4897612;29;20280;-67
2022/08/22 04:33:45;;;;;;;3.42;0.50;;;26.90;54.00;;;;;;4897305;29;20485;-66
2022/08/22 04:36:47;;;;;;;2.63;0.50;;;27.10;53.50;;;;;;4896988;29;20040;-68
2022/08/22 04:39:29;;;;;;;2.58;0.82;;;27.20;53.30;;;;;;4896941;29;20401;-67
2022/08/22 04:42:06;;;;;;;2.92;0.40;;;27.70;53.30;;;;;;4897366;29;20056;-67
2022/08/22 04:44:46;;;;;;;2.20;0.30;;;28.00;52.40;;;;;;4897281;29;20111;-69
2022/08/22 04:47:45;;;;;;;2.92;0.43;;;27.70;52.60;;;;;;4897097;29;20028;-67
2022/08/22 04:50:20;;;;;;;1.42;0.30;;;27.10;52.70;;;;;;4896713;29;20052;-67
2022/08/22 04:53:28;;;;;;;0.95;0.35;;;26.70;53.90;;;;;;4897401;29;20116;-71
2022/08/22 04:56:32;;;;;;;2.72;0.40;;;26.80;52.90;;;;;;4895485;29;20045;-66
2022/08/22 04:59:10;;;;;;;2.33;0.40;;;26.60;54.00;;;;;;4896571;29;20060;-66
2022/08/22 05:01:42;;;;;;;2.72;0.30;;;26.60;54.00;;;;;;4896821;29;20032;-67
2022/08/22 05:04:11;;;;;;;;;;;26.60;53.40;;;;;;4897412;29;20021;-68
2022/08/22 05:06:43;;;;;;;3.05;1.13;;;26.60;53.90;;;;;;4896766;29;19904;-67
2022/08/22 05:09:17;;;;;;;2.53;0.32;;;26.90;53.60;;;;;;4895715;29;20099;-66
2022/08/22 05:11:47;;;;;;;1.50;0.50;;;26.80;53.40;;;;;;4896767;29;20437;-69
2022/08/22 05:14:57;;;;;;;1.95;0.38;;;26.80;53.70;;;;;;4896327;29;20495;-67
2022/08/22 05:17:30;;;;;;;1.05;0.40;;;27.30;53.30;;;;;;4896138;29;20188;-70
2022/08/22 05:20:06;;;;;;;2.15;0.30;;;27.40;53.00;;;;;;4896687;29;20100;-67
2022/08/22 05:22:43;;;;;;;3.03;0.40;;;27.40;53.50;;;;;;4895513;29;20020;-66
2022/08/22 05:25:26;;;;;;;11.25;0.75;;;27.50;52.70;;;;;;4893827;29;20039;-66
2022/08/22 05:28:07;;;;;;;5.78;0.40;;;27.20;53.00;;;;;;4895312;29;20028;-67
2022/08/22 05:30:37;;;;;;;2.72;0.40;;;26.90;53.80;;;;;;4895608;29;20049;-65
2022/08/22 05:33:36;;;;;;;1.77;0.40;;;27.00;53.40;;;;;;4895685;29;20055;-66
2022/08/22 05:36:10;;;;;;;2.35;0.30;;;27.10;53.00;;;;;;4883529;29;20525;-66
2022/08/22 05:38:53;;;;;;;2.83;0.30;;;27.10;53.20;;;;;;4894015;29;20056;-69
2022/08/22 05:41:25;;;;;;;1.20;0.35;;;27.10;53.30;;;;;;4907210;29;20099;-67
2022/08/22 05:43:53;;;;;;;1.70;0.40;;;26.90;53.40;;;;;;4910014;29;20024;-67
2022/08/22 05:46:38;;;;;;;1.08;0.30;;;26.70;52.90;;;;;;4895591;29;20489;-65
2022/08/22 05:49:15;;;;;;;0.20;0.20;;;26.60;53.50;;;;;;4894656;29;20068;-66
2022/08/22 05:52:02;;;;;;;2.05;0.35;;;26.90;53.20;;;;;;4894711;29;20496;-67
2022/08/22 05:54:33;;;;;;;0.43;0.30;;;26.70;52.90;;;;;;4895269;29;20033;-66
2022/08/22 05:57:20;;;;;;;1.17;0.30;;;26.90;52.80;;;;;;4895989;29;20048;-67
2022/08/22 05:59:53;;;;;;;1.13;0.40;;;27.10;53.00;;;;;;4896209;29;20471;-64
2022/08/22 06:02:38;;;;;;;0.35;0.25;;;27.40;52.90;;;;;;4896046;29;20039;-65
2022/08/22 06:05:07;;;;;;;2.25;0.40;;;27.70;52.20;;;;;;4896443;29;20044;-66
2022/08/22 06:07:47;;;;;;;0.50;0.30;;;27.50;52.60;;;;;;4895759;29;20045;-65
2022/08/22 06:10:14;;;;;;;0.93;0.30;;;27.60;52.90;;;;;;4895213;29;20021;-64
2022/08/22 06:13:10;;;;;;;0.65;0.47;;;27.70;52.40;;;;;;4895590;29;20021;-64
2022/08/22 06:15:50;;;;;;;1.85;0.25;;;27.60;52.30;;;;;;4878234;29;20124;-65
2022/08/22 06:18:23;;;;;;;3.47;0.52;;;27.00;52.00;;;;;;4895626;29;20025;-65
2022/08/22 06:21:00;;;;;;;0.90;0.30;;;26.90;52.00;;;;;;4896956;29;20021;-66
2022/08/22 06:23:49;;;;;;;1.35;0.30;;;26.70;52.80;;;;;;4897787;29;20044;-70
2022/08/22 06:26:18;;;;;;;0.60;0.20;;;26.70;53.20;;;;;;4897239;29;20037;-70
2022/08/22 06:28:50;;;;;;;1.27;0.40;;;26.80;53.60;;;;;;4897613;29;20028;-66
2022/08/22 06:31:26;;;;;;;0.63;0.30;;;26.80;52.10;;;;;;4898255;29;20489;-69
2022/08/22 06:34:08;;;;;;;1.17;0.47;;;26.70;52.80;;;;;;4898589;29;20275;-67
2022/08/22 06:36:36;;;;;;;;;;;26.90;52.80;;;;;;4900080;29;20240;-64
2022/08/22 06:39:09;;;;;;;1.75;0.63;;;26.70;51.60;;;;;;4899328;29;19907;-66
2022/08/22 06:42:05;;;;;;;0.57;0.30;;;26.50;51.10;;;;;;4896340;29;20024;-65
2022/08/22 06:44:38;;;;;;;1.77;0.40;;;26.00;51.90;;;;;;4910397;29;20028;-65
2022/08/22 06:47:21;;;;;;;1.73;0.30;;;25.70;52.20;;;;;;4897448;29;20029;-65
2022/08/22 06:49:50;;;;;;;2.00;0.30;;;25.30;52.00;;;;;;4898443;29;20072;-66
2022/08/22 06:52:24;;;;;;;0.30;0.28;;;24.70;52.60;;;;;;4897965;29;20056;-66
2022/08/22 06:54:59;;;;;;;1.95;0.40;;;23.90;53.70;;;;;;4897861;29;20047;-67
2022/08/22 06:57:34;;;;;;;0.65;0.30;;;23.20;54.80;;;;;;4898362;29;20176;-62
2022/08/22 07:00:08;;;;;;;4.65;0.47;;;22.60;55.70;;;;;;4898585;29;20036;-65
2022/08/22 07:02:41;;;;;;;3.00;0.40;;;22.00;56.80;;;;;;4898649;29;20025;-66
2022/08/22 07:05:19;;;;;;;1.00;0.50;;;21.50;57.70;;;;;;4898908;29;20157;-65
2022/08/22 07:07:47;;;;;;;1.67;0.30;;;21.20;58.20;;;;;;4899096;29;20028;-69
2022/08/22 07:10:16;;;;;;;2.60;0.30;;;20.90;58.40;;;;;;4898661;29;20036;-66
2022/08/22 07:12:50;;;;;;;1.10;0.38;;;20.70;59.00;;;;;;4898424;29;20363;-65
2022/08/22 07:15:41;;;;;;;1.50;0.45;;;20.50;59.50;;;;;;4897846;29;20111;-68
2022/08/22 07:18:17;;;;;;;1.95;0.50;;;20.20;60.20;;;;;;4898501;29;20047;-67
2022/08/22 07:20:51;;;;;;;0.80;0.65;;;20.10;60.20;;;;;;4898244;29;20504;-65
2022/08/22 07:23:46;;;;;;;3.22;0.65;;;20.00;61.00;;;;;;4898320;29;20040;-65
2022/08/22 07:26:49;;;;;;;1.77;0.65;;;19.90;61.20;;;;;;4897965;29;20052;-64
2022/08/22 07:29:50;;;;;;;0.90;0.40;;;19.70;61.40;;;;;;4898627;29;20497;-67
2022/08/22 07:32:48;;;;;;;5.35;2.67;;;19.60;61.70;;;;;;4895922;29;20112;-68
2022/08/22 07:35:34;;;;;;;2.75;1.52;;;19.50;62.00;;;;;;4908600;29;20501;-67
2022/08/22 07:38:07;;;;;;;0.85;0.50;;;19.30;62.20;;;;;;4897822;29;20039;-69
2022/08/22 07:40:59;;;;;;;0.65;0.40;;;19.20;62.70;;;;;;4897740;29;20025;-66
2022/08/22 07:43:47;;;;;;;3.72;2.15;;;19.10;62.60;;;;;;4897055;29;20164;-67
2022/08/22 07:46:36;;;;;;;1.40;0.70;;;19.00;63.40;;;;;;4896503;29;20108;-67
2022/08/22 07:49:23;;;;;;;2.28;0.98;;;18.90;63.20;;;;;;4897951;29;20021;-68
2022/08/22 07:51:57;;;;;;;0.93;0.63;;;18.90;63.70;;;;;;4897473;29;20039;-70
2022/08/22 07:54:41;;;;;;;2.13;1.08;;;18.80;64.30;;;;;;4897958;29;20033;-75
2022/08/22 07:57:29;;;;;;;1.70;0.80;;;18.70;64.30;;;;;;4897260;29;20393;-66
2022/08/22 07:59:59;;;;;;;1.23;0.47;;;18.70;64.70;;;;;;4897488;29;20179;-65
2022/08/22 08:02:27;;;;;;;1.70;1.30;;;18.60;64.70;;;;;;4897736;29;20056;-69
2022/08/22 08:04:56;;;;;;;1.25;0.98;;;18.50;65.20;;;;;;4896853;29;20071;-66
2022/08/22 08:07:26;;;;;;;1.27;0.50;;;18.40;65.10;;;;;;4896933;29;20059;-68
2022/08/22 08:10:05;;;;;;;1.33;0.73;;;18.40;65.10;;;;;;4896843;29;20651;-70
2022/08/22 08:12:39;;;;;;;3.28;1.05;;;18.30;65.50;;;;;;4897311;29;20092;-66
2022/08/22 08:15:14;;;;;;;1.52;0.70;;;18.20;65.90;;;;;;4897395;29;20159;-69
2022/08/22 08:17:42;;;;;;;0.75;0.45;;;18.20;65.90;;;;;;4896867;29;20415;-66
2022/08/22 08:20:13;;;;;;;1.73;0.50;;;18.10;65.80;;;;;;4896951;29;20171;-65
2022/08/22 08:22:44;;;;;;;1.42;0.55;;;18.00;66.20;;;;;;4896407;29;20065;-67
2022/08/22 08:25:22;;;;;;;1.20;0.60;;;18.00;66.00;;;;;;4896168;29;20036;-75
2022/08/22 08:30:39;;;;;;;3.97;1.10;;;17.90;66.50;;;;;;4896873;29;20116;-66
2022/08/22 08:33:08;;;;;;;3.70;0.70;;;17.90;66.90;;;;;;4897178;29;20621;-65
2022/08/22 08:35:39;;;;;;;1.25;0.50;;;17.80;66.60;;;;;;4897431;29;20049;-66
2022/08/22 08:38:21;;;;;;;1.65;0.80;;;17.80;66.50;;;;;;4894377;29;20033;-64
2022/08/22 08:40:54;;;;;;;1.63;0.88;;;17.70;66.90;;;;;;4894284;29;20036;-65
2022/08/22 08:43:41;;;;;;;1.80;0.70;;;17.70;67.20;;;;;;4896239;29;20040;-65
2022/08/22 08:46:18;;;;;;;2.88;0.90;;;17.60;66.90;;;;;;4896041;29;20460;-66
2022/08/22 08:49:22;;;;;;;2.00;0.90;;;17.50;67.10;;;;;;4896257;29;20029;-65
2022/08/22 08:52:15;;;;;;;4.63;1.15;;;17.40;67.20;;;;;;4897056;29;20028;-66
2022/08/22 08:55:01;;;;;;;6.10;3.80;;;17.40;67.60;;;;;;4893611;29;20088;-70
2022/08/22 08:57:58;;;;;;;2.50;1.40;;;17.30;67.70;;;;;;4877449;29;20033;-65
2022/08/22 09:00:50;;;;;;;2.33;1.85;;;17.30;68.60;;;;;;4896668;29;20032;-64
2022/08/22 09:03:55;;;;;;;5.43;3.92;;;17.20;68.30;;;;;;4896563;29;20406;-66
2022/08/22 09:06:54;;;;;;;7.82;4.82;;;17.20;68.40;;;;;;4894672;29;20435;-67
2022/08/22 09:09:24;;;;;;;7.10;4.90;;;17.10;68.00;;;;;;4895174;29;20031;-66
2022/08/22 09:12:09;;;;;;;4.57;2.55;;;17.10;68.20;;;;;;4893493;29;20013;-67
2022/08/22 09:15:01;;;;;;;5.43;3.00;;;17.00;68.60;;;;;;4894391;29;20153;-70
2022/08/22 09:18:04;;;;;;;3.60;1.70;;;17.00;69.20;;;;;;4895907;29;20715;-72
2022/08/22 09:20:52;;;;;;;2.45;1.13;;;16.90;69.20;;;;;;4883666;29;20032;-70
2022/08/22 09:23:30;;;;;;;5.03;1.30;;;16.80;69.20;;;;;;4886233;29;20032;-67
2022/08/22 09:26:01;;;;;;;4.38;1.35;;;16.70;69.30;;;;;;4894321;29;20103;-73
2022/08/22 09:28:53;;;;;;;2.72;1.25;;;16.70;69.70;;;;;;4894291;29;20036;-69
2022/08/22 09:31:35;;;;;;;6.95;4.07;;;16.70;70.20;;;;;;4892818;29;20024;-67
2022/08/22 09:34:08;;;;;;;4.45;1.63;;;16.60;70.50;;;;;;4895532;29;20065;-66
2022/08/22 09:36:54;;;;;;;4.38;2.00;;;16.60;70.80;;;;;;4894033;29;20036;-66
2022/08/22 09:39:31;;;;;;;3.92;1.85;;;16.60;71.00;;;;;;4895593;29;20035;-64
2022/08/22 09:42:02;;;;;;;3.78;1.20;;;16.40;71.80;;;;;;4894096;29;20358;-65
2022/08/22 09:44:51;;;;;;;3.75;1.70;;;16.30;71.80;;;;;;4891458;29;20036;-65
2022/08/22 09:47:21;;;;;;;3.45;1.65;;;16.20;72.70;;;;;;4893713;29;20501;-65
2022/08/22 09:49:55;;;;;;;2.80;1.48;;;16.20;72.90;;;;;;4893507;29;20690;-67
2022/08/22 09:52:53;;;;;;;3.72;2.33;;;16.20;73.80;;;;;;4893798;29;20024;-66
2022/08/22 09:55:46;;;;;;;4.18;3.58;;;16.10;74.30;;;;;;4894425;29;20072;-67
2022/08/22 09:58:41;;;;;;;4.47;3.38;;;16.00;74.60;;;;;;4896103;29;20052;-67
2022/08/22 10:01:29;;;;;;;5.72;4.10;;;15.90;75.10;;;;;;4897135;29;20029;-66
2022/08/22 10:04:14;;;;;;;4.85;1.70;;;15.80;75.80;;;;;;4897283;29;20036;-67
2022/08/22 10:07:23;;;;;;;3.88;1.38;;;15.70;73.00;;;;;;4898001;29;20107;-68
2022/08/22 10:09:56;;;;;;;4.45;1.42;;;15.70;73.60;;;;;;4897451;29;20115;-68
2022/08/22 10:12:35;;;;;;;2.65;1.60;;;15.70;73.50;;;;;;4896901;29;20537;-67
2022/08/22 10:15:22;;;;;;;3.03;1.27;;;15.70;73.60;;;;;;4893651;29;20117;-71
2022/08/22 10:18:14;;;;;;;4.53;3.45;;;15.70;73.60;;;;;;4897873;29;20035;-68
2022/08/22 10:21:03;;;;;;;5.43;4.70;;;15.70;73.70;;;;;;4896754;29;20060;-68
2022/08/22 10:23:45;;;;;;;6.38;2.95;;;15.60;74.00;;;;;;4894705;29;20032;-64
2022/08/22 10:26:44;;;;;;;3.20;1.98;;;15.60;73.90;;;;;;4895033;29;20025;-71
2022/08/22 10:29:43;;;;;;;2.97;1.42;;;15.60;73.60;;;;;;4895256;29;20037;-69
2022/08/22 10:32:29;;;;;;;4.68;3.38;;;15.60;73.30;;;;;;4889350;29;20044;-67
2022/08/22 10:35:14;;;;;;;4.47;3.25;;;15.60;73.80;;;;;;4895469;29;20021;-66
2022/08/22 10:38:00;;;;;;;3.55;1.30;;;15.60;74.20;;;;;;4895170;29;20035;-67
2022/08/22 10:40:36;;;;;;;4.43;1.92;;;15.50;73.90;;;;;;4894028;29;20033;-74
2022/08/22 10:43:17;;;;;;;3.22;1.20;;;15.50;73.80;;;;;;4897735;29;20032;-72
2022/08/22 10:45:50;;;;;;;2.13;1.30;;;15.50;73.60;;;;;;4896377;29;20104;-67
2022/08/22 10:48:16;;;;;;;;;;;15.50;73.40;;;;;;4898720;29;20482;-67
2022/08/22 10:51:08;;;;;;;4.07;1.10;;;15.50;74.20;;;;;;4882007;29;19920;-67
2022/08/22 10:54:10;;;;;;;3.08;1.20;;;15.50;73.90;;;;;;4876348;29;20073;-67
2022/08/22 10:57:11;;;;;;;3.67;1.20;;;15.40;73.70;;;;;;4898168;29;20036;-68
2022/08/22 10:59:43;;;;;;;2.78;1.38;;;15.50;73.70;;;;;;4898880;29;20075;-67
2022/08/22 11:02:33;;;;;;;4.10;1.77;;;15.50;74.40;;;;;;4899136;29;20052;-68
2022/08/22 11:05:30;;;;;;;2.50;1.25;;;15.50;74.30;;;;;;4899288;29;20036;-65
2022/08/22 11:08:09;;;;;;;2.35;1.20;;;15.50;74.20;;;;;;4899207;29;20021;-65
2022/08/22 11:10:48;;;;;;;3.83;1.13;;;15.60;74.20;;;;;;4898900;29;20024;-65
2022/08/22 11:13:27;;;;;;;3.05;1.42;;;15.50;74.10;;;;;;4898880;29;20119;-65
2022/08/22 11:16:19;;;;;;;1.95;1.10;;;15.60;74.60;;;;;;4898328;29;20100;-65
2022/08/22 11:18:46;;;;;;;2.90;1.35;;;15.60;75.30;;;;;;4898738;29;20077;-66
2022/08/22 11:21:37;;;;;;;1.92;1.10;;;15.60;75.40;;;;;;4898668;29;20091;-65
2022/08/22 11:24:15;;;;;;;2.88;1.33;;;15.60;76.00;;;;;;4897459;29;20425;-66
2022/08/22 11:26:48;;;;;;;2.50;1.17;;;15.70;75.50;;;;;;4898015;29;20445;-67
2022/08/22 11:29:25;;;;;;;4.15;1.55;;;15.70;75.90;;;;;;4897846;29;20100;-66
2022/08/22 11:32:15;;;;;;;3.22;1.80;;;15.70;76.30;;;;;;4898021;29;20028;-65
2022/08/22 11:35:05;;;;;;;2.15;1.30;;;15.70;75.60;;;;;;4898690;29;20029;-65
2022/08/22 11:37:58;;;;;;;2.80;1.80;;;15.70;76.00;;;;;;4898678;29;20051;-67
2022/08/22 11:40:41;;;;;;;2.65;1.13;;;15.70;76.10;;;;;;4896303;29;20025;-67
2022/08/22 11:43:17;;;;;;;2.90;0.90;;;15.70;75.70;;;;;;4896798;29;20033;-66
2022/08/22 11:45:52;;;;;;;2.58;1.50;;;15.80;75.80;;;;;;4898100;29;20032;-66
2022/08/22 11:48:25;;;;;;;2.92;1.35;;;15.80;76.10;;;;;;4898093;29;20024;-65
2022/08/22 11:51:14;;;;;;;2.35;1.05;;;15.90;75.40;;;;;;4897976;29;20104;-66
2022/08/22 11:53:56;;;;;;;2.97;1.67;;;15.90;75.60;;;;;;4898124;29;20028;-66
2022/08/22 11:56:52;;;;;;;3.75;2.40;;;15.90;74.70;;;;;;4896934;29;20036;-65
2022/08/22 11:59:57;;;;;;;4.00;1.45;;;15.90;74.70;;;;;;4891501;29;20367;-65
2022/08/22 12:02:50;;;;;;;3.60;1.70;;;15.90;75.20;;;;;;4880893;29;20156;-67
2022/08/22 12:05:19;;;;;;;;;;;15.80;74.80;;;;;;4888177;29;20043;-65
2022/08/22 12:08:13;;;;;;;3.35;1.85;;;15.80;75.00;;;;;;4897697;29;19974;-66
2022/08/22 12:10:55;;;;;;;1.98;1.30;;;15.70;75.50;;;;;;4896250;29;20040;-65
2022/08/22 12:13:34;;;;;;;2.85;1.10;;;15.60;76.10;;;;;;4895252;29;20136;-65
2022/08/22 12:16:29;;;;;;;1.77;1.30;;;15.60;75.60;;;;;;4894885;29;20512;-66
2022/08/22 12:19:11;;;;;;;3.47;2.08;;;15.50;76.50;;;;;;4893514;29;20033;-66
2022/08/22 12:22:06;;;;;;;3.33;1.80;;;15.40;76.80;;;;;;4894377;29;20025;-69
2022/08/22 12:24:47;;;;;;;2.20;1.20;;;15.40;77.30;;;;;;4896212;29;20024;-65
2022/08/22 12:27:23;;;;;;;3.00;1.40;;;15.30;77.00;;;;;;4896328;29;20032;-67
2022/08/22 12:30:05;;;;;;;4.25;1.40;;;15.20;77.40;;;;;;4896012;29;20024;-65
2022/08/22 12:33:09;;;;;;;3.63;1.70;;;15.10;77.80;;;;;;4894015;29;20040;-69
2022/08/22 12:35:46;;;;;;;3.05;1.65;;;15.10;78.40;;;;;;4894845;29;20029;-65
2022/08/22 12:38:37;;;;;;;3.17;2.35;;;15.00;78.80;;;;;;4893258;29;20028;-65
2022/08/22 12:41:07;;;;;;;4.70;2.17;;;15.00;79.40;;;;;;4894444;29;20036;-65
2022/08/22 12:43:43;;;;;;;4.25;1.55;;;14.90;80.40;;;;;;4893314;29;20108;-67
2022/08/22 12:46:15;;;;;;;2.67;1.10;;;14.80;79.40;;;;;;4893590;29;20029;-65
2022/08/22 12:48:52;;;;;;;3.13;1.83;;;14.80;78.60;;;;;;4896028;29;20028;-63
2022/08/22 12:51:29;;;;;;;5.32;1.67;;;14.80;77.70;;;;;;4894299;29;20443;-71
2022/08/22 12:54:31;;;;;;;3.70;0.85;;;14.90;77.60;;;;;;4893209;29;20025;-67
2022/08/22 12:57:21;;;;;;;1.43;0.80;;;14.90;76.40;;;;;;4835080;29;20041;-66
2022/08/22 12:59:57;;;;;;;2.55;1.33;;;15.00;77.50;;;;;;4892665;29;20040;-67
2022/08/22 13:02:33;;;;;;;3.25;1.30;;;15.10;76.10;;;;;;4895561;29;20035;-65
2022/08/22 13:05:12;;;;;;;1.08;0.73;;;15.10;75.60;;;;;;4894041;29;20080;-67
2022/08/22 13:07:43;;;;;;;2.03;0.70;;;15.20;75.30;;;;;;4893903;29;20040;-68
2022/08/22 13:10:31;;;;;;;1.20;0.68;;;15.20;75.30;;;;;;4894947;29;20024;-68
2022/08/22 13:13:00;;;;;;;1.45;0.70;;;15.30;74.70;;;;;;4893447;29;20025;-66
2022/08/22 13:15:34;;;;;;;1.10;0.50;;;15.30;74.10;;;;;;4895170;29;20553;-64
2022/08/22 13:18:08;;;;;;;0.93;0.45;;;15.50;73.70;;;;;;4893772;29;20379;-65
2022/08/22 13:20:40;;;;;;;1.30;0.60;;;15.60;72.20;;;;;;4893567;29;20080;-64
2022/08/22 13:23:47;;;;;;;1.30;0.93;;;15.70;72.50;;;;;;4895480;29;20036;-68
2022/08/22 13:26:19;;;;;;;1.95;0.80;;;15.80;72.50;;;;;;4892357;29;20064;-66
2022/08/22 13:28:50;;;;;;;0.70;0.52;;;15.70;72.10;;;;;;4894693;29;20021;-67
2022/08/22 13:31:40;;;;;;;1.27;0.75;;;15.70;73.00;;;;;;4892955;29;20505;-68
2022/08/22 13:34:10;;;;;;;1.35;0.52;;;15.70;72.30;;;;;;4893900;29;20093;-66
2022/08/22 13:36:45;;;;;;;4.15;0.80;;;15.70;72.10;;;;;;4894272;29;20044;-68
2022/08/22 13:39:15;;;;;;;0.93;0.50;;;15.70;72.60;;;;;;4894997;29;20095;-65
2022/08/22 13:42:00;;;;;;;0.98;0.57;;;15.80;72.60;;;;;;4894600;29;20035;-70
2022/08/22 13:44:47;;;;;;;0.93;0.77;;;15.70;72.90;;;;;;4893585;29;20024;-66
2022/08/22 13:47:19;;;;;;;2.35;0.47;;;15.70;73.00;;;;;;4892589;29;20029;-64
2022/08/22 13:50:01;;;;;;;1.20;0.50;;;15.80;72.60;;;;;;4893764;29;20497;-66
2022/08/22 13:52:47;;;;;;;0.70;0.60;;;15.80;72.60;;;;;;4877366;29;20029;-66
2022/08/22 13:55:40;;;;;;;0.85;0.50;;;15.80;72.90;;;;;;4877798;29;20029;-65
2022/08/22 13:58:20;;;;;;;1.25;0.52;;;15.90;73.00;;;;;;4883684;29;20053;-65
2022/08/22 14:01:23;;;;;;;1.00;0.50;;;15.80;73.40;;;;;;4896067;29;20029;-65
2022/08/22 14:04:09;;;;;;;0.60;0.60;;;15.80;73.10;;;;;;4896103;29;20020;-66
2022/08/22 14:06:55;;;;;;;1.48;0.50;;;15.80;73.00;;;;;;4896197;29;20028;-67
2022/08/22 14:09:40;;;;;;;0.68;0.40;;;15.80;73.30;;;;;;4896567;29;20035;-66
2022/08/22 14:12:14;;;;;;;0.77;0.47;;;15.80;72.80;;;;;;4896267;29;20166;-65
2022/08/22 14:14:46;;;;;;;0.65;0.40;;;15.90;73.00;;;;;;4896057;29;20028;-66
2022/08/22 14:17:23;;;;;;;1.23;0.45;;;15.80;73.30;;;;;;4896098;29;20064;-67